Terminal Aerodrome Forecast
Issued by NWS Green Bay, WI

Home | Current Version | Previous Version | Text Only | Print | Product List | Glossary Off
Versions: 1 2 3 4 5 6 7 8 9 10 11 12 13 14 15 16 17 18 19 20 21 22 23 24 25 26 27 28 29 30

460
FTUS43 KGRB 201728
TAFGRB
TAF
KGRB 201728Z 2018/2118 36005KT 1 1/2SM BR OVC004
      TEMPO 2018/2021 4SM -DZ BR OVC007
     FM202100 30011KT 5SM BR OVC008
     FM210000 29010KT P6SM OVC008
     FM210500 31012KT P6SM BKN015 OVC070
     FM211300 32012KT P6SM BKN020
     FM211600 34014G20KT P6SM BKN035=

USA.gov is the U.S. government's official web portal to all federal, state and local government web resources and services.